sensor_id;sensor_type;location;lat;lon;timestamp;temperature;humidity
21570;DHT22;57598;50.888;4.746;2023-06-10T00:01:41;23.10;75.40
21570;DHT22;57598;50.888;4.746;2023-06-10T00:04:09;23.10;75.20
21570;DHT22;57598;50.888;4.746;2023-06-10T00:06:36;23.10;75.10
21570;DHT22;57598;50.888;4.746;2023-06-10T00:09:03;23.00;75.70
21570;DHT22;57598;50.888;4.746;2023-06-10T00:11:31;23.00;75.70
21570;DHT22;57598;50.888;4.746;2023-06-10T00:14:00;23.10;75.60
21570;DHT22;57598;50.888;4.746;2023-06-10T00:16:27;23.00;75.10
21570;DHT22;57598;50.888;4.746;2023-06-10T00:18:54;22.90;75.60
21570;DHT22;57598;50.888;4.746;2023-06-10T00:21:26;22.90;75.80
21570;DHT22;57598;50.888;4.746;2023-06-10T00:23:53;22.80;76.50
21570;DHT22;57598;50.888;4.746;2023-06-10T00:28:48;22.90;76.20
21570;DHT22;57598;50.888;4.746;2023-06-10T00:31:16;22.80;76.50
21570;DHT22;57598;50.888;4.746;2023-06-10T00:33:44;22.80;76.80
21570;DHT22;57598;50.888;4.746;2023-06-10T00:36:11;22.70;76.70
21570;DHT22;57598;50.888;4.746;2023-06-10T00:38:38;22.80;76.70
21570;DHT22;57598;50.888;4.746;2023-06-10T00:41:06;22.60;76.90
21570;DHT22;57598;50.888;4.746;2023-06-10T00:43:33;22.60;77.20
21570;DHT22;57598;50.888;4.746;2023-06-10T00:46:00;22.60;77.10
21570;DHT22;57598;50.888;4.746;2023-06-10T00:48:29;22.60;77.30
21570;DHT22;57598;50.888;4.746;2023-06-10T00:50:56;22.60;77.70
21570;DHT22;57598;50.888;4.746;2023-06-10T00:53:24;22.60;77.70
21570;DHT22;57598;50.888;4.746;2023-06-10T00:55:51;22.50;77.90
21570;DHT22;57598;50.888;4.746;2023-06-10T00:58:19;22.40;78.20
21570;DHT22;57598;50.888;4.746;2023-06-10T01:00:46;22.50;77.90
21570;DHT22;57598;50.888;4.746;2023-06-10T01:03:13;22.40;78.40
21570;DHT22;57598;50.888;4.746;2023-06-10T01:05:46;22.40;78.60
21570;DHT22;57598;50.888;4.746;2023-06-10T01:08:31;22.40;78.50
21570;DHT22;57598;50.888;4.746;2023-06-10T01:11:01;22.40;78.90
21570;DHT22;57598;50.888;4.746;2023-06-10T01:13:31;22.30;79.00
21570;DHT22;57598;50.888;4.746;2023-06-10T01:15:59;22.20;79.60
21570;DHT22;57598;50.888;4.746;2023-06-10T01:18:30;22.10;79.60
21570;DHT22;57598;50.888;4.746;2023-06-10T01:20:58;22.20;79.50
21570;DHT22;57598;50.888;4.746;2023-06-10T01:23:27;22.10;80.70
21570;DHT22;57598;50.888;4.746;2023-06-10T01:25:58;22.00;80.00
21570;DHT22;57598;50.888;4.746;2023-06-10T01:28:30;22.00;80.60
21570;DHT22;57598;50.888;4.746;2023-06-10T01:30:59;21.90;80.60
21570;DHT22;57598;50.888;4.746;2023-06-10T01:33:31;21.90;80.60
21570;DHT22;57598;50.888;4.746;2023-06-10T01:36:00;21.80;80.70
21570;DHT22;57598;50.888;4.746;2023-06-10T01:38:32;21.80;81.00
21570;DHT22;57598;50.888;4.746;2023-06-10T01:41:00;21.90;80.80
21570;DHT22;57598;50.888;4.746;2023-06-10T01:43:28;21.80;81.10
21570;DHT22;57598;50.888;4.746;2023-06-10T01:45:54;21.70;81.70
21570;DHT22;57598;50.888;4.746;2023-06-10T01:48:22;21.60;82.00
21570;DHT22;57598;50.888;4.746;2023-06-10T01:50:49;21.60;82.00
21570;DHT22;57598;50.888;4.746;2023-06-10T01:53:16;21.60;82.20
21570;DHT22;57598;50.888;4.746;2023-06-10T01:55:44;21.60;82.70
21570;DHT22;57598;50.888;4.746;2023-06-10T01:58:11;21.50;82.70
21570;DHT22;57598;50.888;4.746;2023-06-10T02:00:38;21.40;82.70
21570;DHT22;57598;50.888;4.746;2023-06-10T02:03:05;21.30;83.40
21570;DHT22;57598;50.888;4.746;2023-06-10T02:05:32;21.30;83.70
21570;DHT22;57598;50.888;4.746;2023-06-10T02:07:59;21.30;84.00
21570;DHT22;57598;50.888;4.746;2023-06-10T02:10:26;21.30;83.70
21570;DHT22;57598;50.888;4.746;2023-06-10T02:12:54;21.30;84.00
21570;DHT22;57598;50.888;4.746;2023-06-10T02:15:21;21.20;84.20
21570;DHT22;57598;50.888;4.746;2023-06-10T02:17:48;21.30;84.50
21570;DHT22;57598;50.888;4.746;2023-06-10T02:20:16;21.20;84.80
21570;DHT22;57598;50.888;4.746;2023-06-10T02:22:43;21.20;84.90
21570;DHT22;57598;50.888;4.746;2023-06-10T02:25:10;21.20;85.10
21570;DHT22;57598;50.888;4.746;2023-06-10T02:27:37;21.10;85.40
21570;DHT22;57598;50.888;4.746;2023-06-10T02:30:06;21.10;85.40
21570;DHT22;57598;50.888;4.746;2023-06-10T02:32:35;21.00;86.30
21570;DHT22;57598;50.888;4.746;2023-06-10T02:35:03;21.00;85.80
21570;DHT22;57598;50.888;4.746;2023-06-10T02:37:30;20.80;86.30
21570;DHT22;57598;50.888;4.746;2023-06-10T02:39:57;20.90;86.40
21570;DHT22;57598;50.888;4.746;2023-06-10T02:42:25;20.80;87.00
21570;DHT22;57598;50.888;4.746;2023-06-10T02:44:51;20.80;86.90
21570;DHT22;57598;50.888;4.746;2023-06-10T02:47:20;20.80;87.00
21570;DHT22;57598;50.888;4.746;2023-06-10T02:49:47;20.80;87.10
21570;DHT22;57598;50.888;4.746;2023-06-10T02:52:14;20.80;87.30
21570;DHT22;57598;50.888;4.746;2023-06-10T02:54:41;20.70;87.30
21570;DHT22;57598;50.888;4.746;2023-06-10T02:57:08;20.70;87.80
21570;DHT22;57598;50.888;4.746;2023-06-10T02:59:35;20.60;88.10
21570;DHT22;57598;50.888;4.746;2023-06-10T03:02:02;20.70;88.10
21570;DHT22;57598;50.888;4.746;2023-06-10T03:04:31;20.60;88.40
21570;DHT22;57598;50.888;4.746;2023-06-10T03:06:58;20.70;88.50
21570;DHT22;57598;50.888;4.746;2023-06-10T03:09:29;20.60;88.90
21570;DHT22;57598;50.888;4.746;2023-06-10T03:11:56;20.50;89.20
21570;DHT22;57598;50.888;4.746;2023-06-10T03:14:24;20.60;89.30
21570;DHT22;57598;50.888;4.746;2023-06-10T03:16:51;20.50;89.70
21570;DHT22;57598;50.888;4.746;2023-06-10T03:19:19;20.50;89.70
21570;DHT22;57598;50.888;4.746;2023-06-10T03:21:49;20.50;89.60
21570;DHT22;57598;50.888;4.746;2023-06-10T03:24:16;20.50;90.00
21570;DHT22;57598;50.888;4.746;2023-06-10T03:26:43;20.40;90.10
21570;DHT22;57598;50.888;4.746;2023-06-10T03:29:10;20.50;90.10
21570;DHT22;57598;50.888;4.746;2023-06-10T03:31:37;20.50;90.10
21570;DHT22;57598;50.888;4.746;2023-06-10T03:34:05;20.50;90.10
21570;DHT22;57598;50.888;4.746;2023-06-10T03:36:32;20.50;90.30
21570;DHT22;57598;50.888;4.746;2023-06-10T03:39:00;20.50;90.20
21570;DHT22;57598;50.888;4.746;2023-06-10T03:41:27;20.50;90.10
21570;DHT22;57598;50.888;4.746;2023-06-10T03:43:54;20.40;90.40
21570;DHT22;57598;50.888;4.746;2023-06-10T03:46:21;20.40;90.50
21570;DHT22;57598;50.888;4.746;2023-06-10T03:48:48;20.30;90.80
21570;DHT22;57598;50.888;4.746;2023-06-10T03:51:15;20.30;90.80
21570;DHT22;57598;50.888;4.746;2023-06-10T03:53:42;20.30;91.10
21570;DHT22;57598;50.888;4.746;2023-06-10T03:56:10;20.30;91.00
21570;DHT22;57598;50.888;4.746;2023-06-10T03:58:37;20.30;91.20
21570;DHT22;57598;50.888;4.746;2023-06-10T04:01:04;20.30;91.20
21570;DHT22;57598;50.888;4.746;2023-06-10T04:03:32;20.30;91.20
21570;DHT22;57598;50.888;4.746;2023-06-10T04:06:00;20.30;91.30
21570;DHT22;57598;50.888;4.746;2023-06-10T04:08:27;20.30;91.40
21570;DHT22;57598;50.888;4.746;2023-06-10T04:10:54;20.30;91.40
21570;DHT22;57598;50.888;4.746;2023-06-10T04:13:23;20.30;91.60
21570;DHT22;57598;50.888;4.746;2023-06-10T04:15:50;20.30;91.60
21570;DHT22;57598;50.888;4.746;2023-06-10T04:18:17;20.30;91.60
21570;DHT22;57598;50.888;4.746;2023-06-10T04:20:44;20.30;91.80
21570;DHT22;57598;50.888;4.746;2023-06-10T04:23:11;20.30;91.90
21570;DHT22;57598;50.888;4.746;2023-06-10T04:25:38;20.30;91.90
21570;DHT22;57598;50.888;4.746;2023-06-10T04:28:05;20.40;91.90
21570;DHT22;57598;50.888;4.746;2023-06-10T04:30:34;20.30;92.20
21570;DHT22;57598;50.888;4.746;2023-06-10T04:33:00;20.30;92.10
21570;DHT22;57598;50.888;4.746;2023-06-10T04:35:27;20.40;92.20
21570;DHT22;57598;50.888;4.746;2023-06-10T04:37:54;20.30;92.50
21570;DHT22;57598;50.888;4.746;2023-06-10T04:40:22;20.40;92.40
21570;DHT22;57598;50.888;4.746;2023-06-10T04:42:49;20.30;92.50
21570;DHT22;57598;50.888;4.746;2023-06-10T04:45:16;20.40;92.50
21570;DHT22;57598;50.888;4.746;2023-06-10T04:47:44;20.40;92.50
21570;DHT22;57598;50.888;4.746;2023-06-10T04:50:11;20.50;92.50
21570;DHT22;57598;50.888;4.746;2023-06-10T04:52:38;20.50;92.70
21570;DHT22;57598;50.888;4.746;2023-06-10T04:55:07;20.50;92.90
21570;DHT22;57598;50.888;4.746;2023-06-10T04:57:35;20.50;92.80
21570;DHT22;57598;50.888;4.746;2023-06-10T05:00:03;20.60;92.80
21570;DHT22;57598;50.888;4.746;2023-06-10T05:02:31;20.60;92.80
21570;DHT22;57598;50.888;4.746;2023-06-10T05:05:00;20.60;93.10
21570;DHT22;57598;50.888;4.746;2023-06-10T05:07:27;20.60;93.10
21570;DHT22;57598;50.888;4.746;2023-06-10T05:09:54;20.80;92.80
21570;DHT22;57598;50.888;4.746;2023-06-10T05:12:20;20.80;92.80
21570;DHT22;57598;50.888;4.746;2023-06-10T05:14:48;20.80;92.80
21570;DHT22;57598;50.888;4.746;2023-06-10T05:17:15;20.90;92.70
21570;DHT22;57598;50.888;4.746;2023-06-10T05:19:42;20.90;92.80
21570;DHT22;57598;50.888;4.746;2023-06-10T05:22:11;21.00;92.90
21570;DHT22;57598;50.888;4.746;2023-06-10T05:24:38;21.10;92.90
21570;DHT22;57598;50.888;4.746;2023-06-10T05:27:06;21.20;93.00
21570;DHT22;57598;50.888;4.746;2023-06-10T05:29:34;21.20;92.60
21570;DHT22;57598;50.888;4.746;2023-06-10T05:32:01;21.30;92.60
21570;DHT22;57598;50.888;4.746;2023-06-10T05:34:29;21.30;92.30
21570;DHT22;57598;50.888;4.746;2023-06-10T05:36:56;21.40;92.20
21570;DHT22;57598;50.888;4.746;2023-06-10T05:39:24;21.60;92.10
21570;DHT22;57598;50.888;4.746;2023-06-10T05:41:51;21.90;91.40
21570;DHT22;57598;50.888;4.746;2023-06-10T05:44:18;22.00;91.20
21570;DHT22;57598;50.888;4.746;2023-06-10T05:46:45;22.20;91.20
21570;DHT22;57598;50.888;4.746;2023-06-10T05:49:12;22.50;90.80
21570;DHT22;57598;50.888;4.746;2023-06-10T05:51:39;22.60;90.60
21570;DHT22;57598;50.888;4.746;2023-06-10T05:54:06;22.80;90.50
21570;DHT22;57598;50.888;4.746;2023-06-10T05:56:35;22.90;90.00
21570;DHT22;57598;50.888;4.746;2023-06-10T05:59:02;23.20;88.50
21570;DHT22;57598;50.888;4.746;2023-06-10T06:01:29;23.20;88.10
21570;DHT22;57598;50.888;4.746;2023-06-10T06:03:56;23.20;88.00
21570;DHT22;57598;50.888;4.746;2023-06-10T06:06:23;23.30;87.70
21570;DHT22;57598;50.888;4.746;2023-06-10T06:08:50;23.50;86.90
21570;DHT22;57598;50.888;4.746;2023-06-10T06:11:17;23.40;86.80
21570;DHT22;57598;50.888;4.746;2023-06-10T06:13:45;23.60;86.80
21570;DHT22;57598;50.888;4.746;2023-06-10T06:16:13;23.60;86.70
21570;DHT22;57598;50.888;4.746;2023-06-10T06:18:41;23.80;85.90
21570;DHT22;57598;50.888;4.746;2023-06-10T06:21:07;23.90;85.40
21570;DHT22;57598;50.888;4.746;2023-06-10T06:23:34;24.00;85.10
21570;DHT22;57598;50.888;4.746;2023-06-10T06:26:01;24.00;84.50
21570;DHT22;57598;50.888;4.746;2023-06-10T06:28:28;24.20;84.00
21570;DHT22;57598;50.888;4.746;2023-06-10T06:30:58;24.30;83.60
21570;DHT22;57598;50.888;4.746;2023-06-10T06:33:24;24.50;83.30
21570;DHT22;57598;50.888;4.746;2023-06-10T06:35:52;24.70;82.00
21570;DHT22;57598;50.888;4.746;2023-06-10T06:38:19;24.80;81.30
21570;DHT22;57598;50.888;4.746;2023-06-10T06:40:46;24.90;80.60
21570;DHT22;57598;50.888;4.746;2023-06-10T06:43:13;25.10;80.80
21570;DHT22;57598;50.888;4.746;2023-06-10T06:45:40;25.10;80.30
21570;DHT22;57598;50.888;4.746;2023-06-10T06:48:08;25.20;80.00
21570;DHT22;57598;50.888;4.746;2023-06-10T06:50:35;25.40;79.70
21570;DHT22;57598;50.888;4.746;2023-06-10T06:53:03;25.70;79.40
21570;DHT22;57598;50.888;4.746;2023-06-10T06:55:30;25.70;78.30
21570;DHT22;57598;50.888;4.746;2023-06-10T06:57:57;26.00;77.30
21570;DHT22;57598;50.888;4.746;2023-06-10T07:00:28;26.20;77.70
21570;DHT22;57598;50.888;4.746;2023-06-10T07:02:55;26.40;78.70
21570;DHT22;57598;50.888;4.746;2023-06-10T07:05:24;26.40;75.90
21570;DHT22;57598;50.888;4.746;2023-06-10T07:07:52;26.50;77.00
21570;DHT22;57598;50.888;4.746;2023-06-10T07:10:20;26.80;76.20
21570;DHT22;57598;50.888;4.746;2023-06-10T07:12:48;26.80;75.80
21570;DHT22;57598;50.888;4.746;2023-06-10T07:15:15;26.70;75.30
21570;DHT22;57598;50.888;4.746;2023-06-10T07:17:42;26.80;75.00
21570;DHT22;57598;50.888;4.746;2023-06-10T07:20:10;26.90;74.00
21570;DHT22;57598;50.888;4.746;2023-06-10T07:22:39;27.10;73.40
21570;DHT22;57598;50.888;4.746;2023-06-10T07:25:07;27.10;74.00
21570;DHT22;57598;50.888;4.746;2023-06-10T07:27:34;27.30;72.90
21570;DHT22;57598;50.888;4.746;2023-06-10T07:30:01;27.60;72.80
21570;DHT22;57598;50.888;4.746;2023-06-10T07:32:28;27.80;73.40
21570;DHT22;57598;50.888;4.746;2023-06-10T07:34:55;27.70;72.20
21570;DHT22;57598;50.888;4.746;2023-06-10T07:37:23;27.90;71.50
21570;DHT22;57598;50.888;4.746;2023-06-10T07:39:51;28.40;71.30
21570;DHT22;57598;50.888;4.746;2023-06-10T07:42:18;28.40;71.00
21570;DHT22;57598;50.888;4.746;2023-06-10T07:44:45;28.50;71.70
21570;DHT22;57598;50.888;4.746;2023-06-10T07:47:12;28.60;69.90
21570;DHT22;57598;50.888;4.746;2023-06-10T07:49:39;29.00;69.40
21570;DHT22;57598;50.888;4.746;2023-06-10T07:52:07;29.30;68.40
21570;DHT22;57598;50.888;4.746;2023-06-10T07:54:34;29.20;67.30
21570;DHT22;57598;50.888;4.746;2023-06-10T07:57:03;29.20;67.70
21570;DHT22;57598;50.888;4.746;2023-06-10T07:59:32;29.40;67.80
21570;DHT22;57598;50.888;4.746;2023-06-10T08:01:59;29.40;67.50
21570;DHT22;57598;50.888;4.746;2023-06-10T08:04:26;29.60;66.10
21570;DHT22;57598;50.888;4.746;2023-06-10T08:06:53;29.80;66.40
21570;DHT22;57598;50.888;4.746;2023-06-10T08:09:20;29.70;66.80
21570;DHT22;57598;50.888;4.746;2023-06-10T08:11:48;29.90;65.90
21570;DHT22;57598;50.888;4.746;2023-06-10T08:14:17;30.20;64.60
21570;DHT22;57598;50.888;4.746;2023-06-10T08:16:44;30.20;64.30
21570;DHT22;57598;50.888;4.746;2023-06-10T08:19:11;30.40;63.70
21570;DHT22;57598;50.888;4.746;2023-06-10T08:21:38;30.80;62.50
21570;DHT22;57598;50.888;4.746;2023-06-10T08:24:06;30.80;62.70
21570;DHT22;57598;50.888;4.746;2023-06-10T08:26:33;30.70;61.10
21570;DHT22;57598;50.888;4.746;2023-06-10T08:29:00;30.90;62.80
21570;DHT22;57598;50.888;4.746;2023-06-10T08:31:28;31.20;60.90
21570;DHT22;57598;50.888;4.746;2023-06-10T08:33:55;31.40;60.40
21570;DHT22;57598;50.888;4.746;2023-06-10T08:36:22;31.50;59.00
21570;DHT22;57598;50.888;4.746;2023-06-10T08:38:49;31.70;60.60
21570;DHT22;57598;50.888;4.746;2023-06-10T08:41:17;32.00;57.90
21570;DHT22;57598;50.888;4.746;2023-06-10T08:43:51;31.50;58.80
21570;DHT22;57598;50.888;4.746;2023-06-10T08:46:20;31.40;58.20
21570;DHT22;57598;50.888;4.746;2023-06-10T08:48:53;31.60;60.10
21570;DHT22;57598;50.888;4.746;2023-06-10T08:51:23;32.30;57.30
21570;DHT22;57598;50.888;4.746;2023-06-10T08:53:55;32.40;57.90
21570;DHT22;57598;50.888;4.746;2023-06-10T08:56:26;32.50;57.00
21570;DHT22;57598;50.888;4.746;2023-06-10T08:58:55;32.40;58.90
21570;DHT22;57598;50.888;4.746;2023-06-10T09:01:23;32.30;57.00
21570;DHT22;57598;50.888;4.746;2023-06-10T09:03:52;32.90;55.70
21570;DHT22;57598;50.888;4.746;2023-06-10T09:06:20;33.00;55.80
21570;DHT22;57598;50.888;4.746;2023-06-10T09:08:47;33.00;56.00
21570;DHT22;57598;50.888;4.746;2023-06-10T09:11:14;32.90;56.80
21570;DHT22;57598;50.888;4.746;2023-06-10T09:13:41;32.70;57.00
21570;DHT22;57598;50.888;4.746;2023-06-10T09:16:08;33.00;57.20
21570;DHT22;57598;50.888;4.746;2023-06-10T09:18:37;33.50;56.70
21570;DHT22;57598;50.888;4.746;2023-06-10T09:21:06;33.60;54.90
21570;DHT22;57598;50.888;4.746;2023-06-10T09:23:33;33.50;54.90
21570;DHT22;57598;50.888;4.746;2023-06-10T09:26:01;33.30;54.80
21570;DHT22;57598;50.888;4.746;2023-06-10T09:28:29;33.60;54.90
21570;DHT22;57598;50.888;4.746;2023-06-10T09:31:03;33.30;56.00
21570;DHT22;57598;50.888;4.746;2023-06-10T09:33:31;33.50;56.30
21570;DHT22;57598;50.888;4.746;2023-06-10T09:36:01;34.10;56.00
21570;DHT22;57598;50.888;4.746;2023-06-10T09:38:34;34.20;52.70
21570;DHT22;57598;50.888;4.746;2023-06-10T09:41:03;34.30;52.10
21570;DHT22;57598;50.888;4.746;2023-06-10T09:43:41;34.80;52.70
21570;DHT22;57598;50.888;4.746;2023-06-10T09:46:14;34.60;52.40
21570;DHT22;57598;50.888;4.746;2023-06-10T09:48:43;34.40;51.50
21570;DHT22;57598;50.888;4.746;2023-06-10T09:51:11;34.30;51.50
21570;DHT22;57598;50.888;4.746;2023-06-10T09:53:40;34.40;52.70
21570;DHT22;57598;50.888;4.746;2023-06-10T09:56:07;34.30;51.70
21570;DHT22;57598;50.888;4.746;2023-06-10T09:58:35;35.00;52.00
21570;DHT22;57598;50.888;4.746;2023-06-10T10:01:05;34.50;52.10
21570;DHT22;57598;50.888;4.746;2023-06-10T10:03:32;35.00;51.90
21570;DHT22;57598;50.888;4.746;2023-06-10T10:06:00;34.90;51.40
21570;DHT22;57598;50.888;4.746;2023-06-10T10:08:27;34.90;51.40
21570;DHT22;57598;50.888;4.746;2023-06-10T10:10:56;35.10;49.90
21570;DHT22;57598;50.888;4.746;2023-06-10T10:13:26;35.90;50.10
21570;DHT22;57598;50.888;4.746;2023-06-10T10:15:54;35.50;49.30
21570;DHT22;57598;50.888;4.746;2023-06-10T10:18:24;35.80;49.60
21570;DHT22;57598;50.888;4.746;2023-06-10T10:20:59;35.80;49.50
21570;DHT22;57598;50.888;4.746;2023-06-10T10:23:31;35.50;50.60
21570;DHT22;57598;50.888;4.746;2023-06-10T10:26:04;35.80;50.00
21570;DHT22;57598;50.888;4.746;2023-06-10T10:28:45;35.90;49.50
21570;DHT22;57598;50.888;4.746;2023-06-10T10:31:16;36.10;49.50
21570;DHT22;57598;50.888;4.746;2023-06-10T10:33:51;35.30;48.80
21570;DHT22;57598;50.888;4.746;2023-06-10T10:36:22;35.30;48.80
21570;DHT22;57598;50.888;4.746;2023-06-10T10:38:49;35.10;48.50
21570;DHT22;57598;50.888;4.746;2023-06-10T10:41:18;35.80;48.40
21570;DHT22;57598;50.888;4.746;2023-06-10T10:43:47;35.60;49.30
21570;DHT22;57598;50.888;4.746;2023-06-10T10:46:17;36.40;47.80
21570;DHT22;57598;50.888;4.746;2023-06-10T10:48:44;36.30;47.00
21570;DHT22;57598;50.888;4.746;2023-06-10T10:51:15;36.50;47.30
21570;DHT22;57598;50.888;4.746;2023-06-10T10:53:42;36.20;44.30
21570;DHT22;57598;50.888;4.746;2023-06-10T10:56:14;36.30;44.80
21570;DHT22;57598;50.888;4.746;2023-06-10T10:59:02;36.60;46.30
21570;DHT22;57598;50.888;4.746;2023-06-10T11:01:40;36.30;45.30
21570;DHT22;57598;50.888;4.746;2023-06-10T11:04:07;36.30;46.00
21570;DHT22;57598;50.888;4.746;2023-06-10T11:06:34;36.90;46.00
21570;DHT22;57598;50.888;4.746;2023-06-10T11:09:25;37.10;46.60
21570;DHT22;57598;50.888;4.746;2023-06-10T11:11:52;37.10;44.20
21570;DHT22;57598;50.888;4.746;2023-06-10T11:14:26;37.30;43.30
21570;DHT22;57598;50.888;4.746;2023-06-10T11:16:57;37.40;43.70
21570;DHT22;57598;50.888;4.746;2023-06-10T11:19:34;37.00;43.70
21570;DHT22;57598;50.888;4.746;2023-06-10T11:22:04;36.60;43.90
21570;DHT22;57598;50.888;4.746;2023-06-10T11:24:32;36.60;44.70
21570;DHT22;57598;50.888;4.746;2023-06-10T11:27:15;36.50;44.20
21570;DHT22;57598;50.888;4.746;2023-06-10T11:32:38;36.70;42.80
21570;DHT22;57598;50.888;4.746;2023-06-10T11:35:07;36.80;42.60
21570;DHT22;57598;50.888;4.746;2023-06-10T11:37:35;36.40;42.50
21570;DHT22;57598;50.888;4.746;2023-06-10T11:40:03;36.20;42.00
21570;DHT22;57598;50.888;4.746;2023-06-10T11:42:30;36.60;43.30
21570;DHT22;57598;50.888;4.746;2023-06-10T11:44:58;36.80;42.50
21570;DHT22;57598;50.888;4.746;2023-06-10T11:47:28;36.20;42.30
21570;DHT22;57598;50.888;4.746;2023-06-10T11:49:56;35.90;43.70
21570;DHT22;57598;50.888;4.746;2023-06-10T11:52:26;35.40;43.90
21570;DHT22;57598;50.888;4.746;2023-06-10T11:54:54;35.60;44.60
21570;DHT22;57598;50.888;4.746;2023-06-10T11:57:21;36.00;44.40
21570;DHT22;57598;50.888;4.746;2023-06-10T11:59:48;36.30;41.80
21570;DHT22;57598;50.888;4.746;2023-06-10T12:02:17;36.80;42.40
21570;DHT22;57598;50.888;4.746;2023-06-10T12:04:44;36.60;42.20
21570;DHT22;57598;50.888;4.746;2023-06-10T12:07:17;36.70;42.00
21570;DHT22;57598;50.888;4.746;2023-06-10T12:09:45;37.10;41.00
21570;DHT22;57598;50.888;4.746;2023-06-10T12:12:12;37.10;39.80
21570;DHT22;57598;50.888;4.746;2023-06-10T12:14:52;36.90;40.30
21570;DHT22;57598;50.888;4.746;2023-06-10T12:17:36;36.80;39.80
21570;DHT22;57598;50.888;4.746;2023-06-10T12:20:05;36.90;39.30
21570;DHT22;57598;50.888;4.746;2023-06-10T12:22:36;37.10;38.50
21570;DHT22;57598;50.888;4.746;2023-06-10T12:25:05;37.20;38.80
21570;DHT22;57598;50.888;4.746;2023-06-10T12:27:33;36.50;39.20
21570;DHT22;57598;50.888;4.746;2023-06-10T12:30:01;36.70;40.30
21570;DHT22;57598;50.888;4.746;2023-06-10T12:32:39;36.90;40.40
21570;DHT22;57598;50.888;4.746;2023-06-10T12:35:08;37.00;40.90
21570;DHT22;57598;50.888;4.746;2023-06-10T12:37:35;37.10;39.80
21570;DHT22;57598;50.888;4.746;2023-06-10T12:40:04;36.90;40.30
21570;DHT22;57598;50.888;4.746;2023-06-10T12:42:32;36.90;40.90
21570;DHT22;57598;50.888;4.746;2023-06-10T12:45:00;37.00;40.40
21570;DHT22;57598;50.888;4.746;2023-06-10T12:47:31;36.90;40.70
21570;DHT22;57598;50.888;4.746;2023-06-10T12:50:02;37.00;39.90
21570;DHT22;57598;50.888;4.746;2023-06-10T12:52:30;37.10;41.20
21570;DHT22;57598;50.888;4.746;2023-06-10T12:54:58;36.90;41.90
21570;DHT22;57598;50.888;4.746;2023-06-10T12:57:26;36.60;41.10
21570;DHT22;57598;50.888;4.746;2023-06-10T12:59:53;36.80;41.50
21570;DHT22;57598;50.888;4.746;2023-06-10T13:02:22;36.40;41.10
21570;DHT22;57598;50.888;4.746;2023-06-10T13:04:50;36.60;40.60
21570;DHT22;57598;50.888;4.746;2023-06-10T13:07:18;37.20;40.90
21570;DHT22;57598;50.888;4.746;2023-06-10T13:09:45;36.80;40.10
21570;DHT22;57598;50.888;4.746;2023-06-10T13:12:14;37.10;39.40
21570;DHT22;57598;50.888;4.746;2023-06-10T13:14:43;36.80;39.70
21570;DHT22;57598;50.888;4.746;2023-06-10T13:17:10;36.90;39.40
21570;DHT22;57598;50.888;4.746;2023-06-10T13:19:37;37.10;40.60
21570;DHT22;57598;50.888;4.746;2023-06-10T13:22:04;36.70;40.60
21570;DHT22;57598;50.888;4.746;2023-06-10T13:24:33;36.70;41.00
21570;DHT22;57598;50.888;4.746;2023-06-10T13:26:59;36.70;41.30
21570;DHT22;57598;50.888;4.746;2023-06-10T13:29:27;37.20;40.70
21570;DHT22;57598;50.888;4.746;2023-06-10T13:31:54;37.20;40.60
21570;DHT22;57598;50.888;4.746;2023-06-10T13:34:21;37.00;39.40
21570;DHT22;57598;50.888;4.746;2023-06-10T13:36:48;37.30;40.90
21570;DHT22;57598;50.888;4.746;2023-06-10T13:39:15;37.60;39.60
21570;DHT22;57598;50.888;4.746;2023-06-10T13:41:43;37.10;39.40
21570;DHT22;57598;50.888;4.746;2023-06-10T13:44:10;37.10;39.70
21570;DHT22;57598;50.888;4.746;2023-06-10T13:46:37;36.80;40.20
21570;DHT22;57598;50.888;4.746;2023-06-10T13:49:04;37.10;40.20
21570;DHT22;57598;50.888;4.746;2023-06-10T13:51:31;36.90;39.50
21570;DHT22;57598;50.888;4.746;2023-06-10T13:53:58;36.90;40.20
21570;DHT22;57598;50.888;4.746;2023-06-10T13:56:25;36.70;41.40
21570;DHT22;57598;50.888;4.746;2023-06-10T13:58:54;36.70;40.30
21570;DHT22;57598;50.888;4.746;2023-06-10T14:01:21;36.80;40.20
21570;DHT22;57598;50.888;4.746;2023-06-10T14:03:48;36.90;40.80
21570;DHT22;57598;50.888;4.746;2023-06-10T14:06:15;36.90;41.30
21570;DHT22;57598;50.888;4.746;2023-06-10T14:08:44;36.90;41.20
21570;DHT22;57598;50.888;4.746;2023-06-10T14:11:14;36.80;39.90
21570;DHT22;57598;50.888;4.746;2023-06-10T14:13:41;37.00;40.40
21570;DHT22;57598;50.888;4.746;2023-06-10T14:16:10;37.20;40.90
21570;DHT22;57598;50.888;4.746;2023-06-10T14:18:37;37.20;40.10
21570;DHT22;57598;50.888;4.746;2023-06-10T14:21:07;37.10;40.10
21570;DHT22;57598;50.888;4.746;2023-06-10T14:23:34;37.60;40.10
21570;DHT22;57598;50.888;4.746;2023-06-10T14:26:01;37.20;40.00
21570;DHT22;57598;50.888;4.746;2023-06-10T14:28:28;37.30;39.70
21570;DHT22;57598;50.888;4.746;2023-06-10T14:30:59;36.80;39.50
21570;DHT22;57598;50.888;4.746;2023-06-10T14:33:28;36.90;39.80
21570;DHT22;57598;50.888;4.746;2023-06-10T14:35:56;37.20;39.50
21570;DHT22;57598;50.888;4.746;2023-06-10T14:38:24;37.00;39.90
21570;DHT22;57598;50.888;4.746;2023-06-10T14:40:51;36.90;39.40
21570;DHT22;57598;50.888;4.746;2023-06-10T14:43:20;37.20;38.60
21570;DHT22;57598;50.888;4.746;2023-06-10T14:45:47;37.00;38.10
21570;DHT22;57598;50.888;4.746;2023-06-10T14:48:19;37.40;39.20
21570;DHT22;57598;50.888;4.746;2023-06-10T14:50:48;37.40;39.20
21570;DHT22;57598;50.888;4.746;2023-06-10T14:53:16;37.30;39.60
21570;DHT22;57598;50.888;4.746;2023-06-10T14:55:43;37.10;38.80
21570;DHT22;57598;50.888;4.746;2023-06-10T14:58:10;37.30;38.90
21570;DHT22;57598;50.888;4.746;2023-06-10T15:00:37;37.40;39.60
21570;DHT22;57598;50.888;4.746;2023-06-10T15:03:04;36.70;39.60
21570;DHT22;57598;50.888;4.746;2023-06-10T15:05:31;36.50;41.00
21570;DHT22;57598;50.888;4.746;2023-06-10T15:08:01;36.00;42.10
21570;DHT22;57598;50.888;4.746;2023-06-10T15:10:28;35.90;41.00
21570;DHT22;57598;50.888;4.746;2023-06-10T15:12:55;35.60;40.90
21570;DHT22;57598;50.888;4.746;2023-06-10T15:15:23;35.10;42.30
21570;DHT22;57598;50.888;4.746;2023-06-10T15:17:50;34.90;42.90
21570;DHT22;57598;50.888;4.746;2023-06-10T15:20:18;34.60;42.90
21570;DHT22;57598;50.888;4.746;2023-06-10T15:22:45;34.60;42.70
21570;DHT22;57598;50.888;4.746;2023-06-10T15:25:13;34.80;42.80
21570;DHT22;57598;50.888;4.746;2023-06-10T15:27:40;34.80;42.50
21570;DHT22;57598;50.888;4.746;2023-06-10T15:30:08;34.40;42.30
21570;DHT22;57598;50.888;4.746;2023-06-10T15:32:35;34.40;43.10
21570;DHT22;57598;50.888;4.746;2023-06-10T15:35:02;34.40;41.80
21570;DHT22;57598;50.888;4.746;2023-06-10T15:37:29;34.40;42.30
21570;DHT22;57598;50.888;4.746;2023-06-10T15:39:56;34.30;43.50
21570;DHT22;57598;50.888;4.746;2023-06-10T15:42:25;34.30;43.50